Flight Track Log - Related Links

Times and Time Zones

All times are in EST time to prevent confusion due to time zone crossing. See the AAY855 flight status page for this flight to view local times or setup timezone preferences in your user account.

Time Position Orientation Groundspeed Altitude Reporting Facility
EST Latitude Longitude Course Direction KTS MPH feet Rate Location/Type
Fri 06:28:55 PM 41.6631 -86.3947 131° Southeast 244 281 4,000  Level Chicago Center
Fri 06:29:57 PM 41.6172 -86.3242 131° Southeast 266 306 6,400 2,565 Climbing Chicago Center
Fri 06:30:59 PM 41.5658 -86.2147 122° Southeast 289 333 9,300 2,129 Climbing Chicago Center
Fri 06:32:01 PM 41.4883 -86.1817 162° South 301 346 10,800 1,613 Climbing Chicago Center
Fri 06:33:00 PM 41.3157 -85.7068 131° Southeast  Level FlightAware Approximate
Fri 06:34:00 PM 41.2364 -85.5875 131° Southeast  Level FlightAware Approximate
Fri 06:34:05 PM 41.2928 -86.1483 173° South 361 415 14,300  Level Chicago Center
Fri 06:35:07 PM 41.1833 -86.1300 173° South 392 451 16,100 1,935 Climbing Chicago Center
Fri 06:36:09 PM 41.0469 -86.1033 172° South 412 474 18,300 1,887 Climbing Chicago Center
Fri 06:37:11 PM 40.9281 -86.0836 173° South 429 494 20,000 1,632 Climbing Chicago Center
Fri 06:38:14 PM 40.8083 -86.0608 172° South 436 502 21,700 1,536 Climbing Chicago Center
Fri 06:39:16 PM 40.6742 -86.0331 171° South 446 513 23,200 1,355 Climbing Chicago Center
Fri 06:40:18 PM 40.5489 -86.0081 171° South 454 522 24,500 1,355 Climbing Chicago Center
Fri 06:41:20 PM 40.4214 -85.9850 172° South 459 528 26,000 1,452 Climbing Chicago Center
Fri 06:42:22 PM 40.2953 -85.9608 172° South 459 528 27,500 1,355 Climbing Chicago Center
Fri 06:43:24 PM 40.1697 -85.9353 171° South 456 525 28,800 1,412 Climbing Chicago Center
Fri 06:44:04 PM 40.0683 -85.9169 172° South 457 526 29,900 1,176 Climbing Indianapolis Center
Fri 06:45:06 PM 39.9428 -85.8933 172° South 457 526 30,800 532 Climbing Indianapolis Center
Fri 06:46:08 PM 39.8175 -85.8694 172° South 455 524 31,000 97 Climbing Indianapolis Center
Fri 06:47:10 PM 39.6917 -85.8456 172° South 453 521 31,000  Level Indianapolis Center
Fri 06:48:12 PM 39.5664 -85.8231 172° South 453 521 31,000  Level Indianapolis Center
Fri 06:49:14 PM 39.4403 -85.8003 172° South 453 521 31,000  Level Indianapolis Center
Fri 06:50:16 PM 39.3150 -85.7772 172° South 453 521 31,000  Level Indianapolis Center
Fri 06:51:18 PM 39.1653 -85.7489 172° South 453 521 31,000  Level Indianapolis Center
Fri 06:52:20 PM 39.0397 -85.7264 172° South 453 521 31,000  Level Indianapolis Center
Fri 06:53:21 PM 38.9147 -85.7042 172° South 453 521 31,000  Level Indianapolis Center
Fri 06:54:23 PM 38.7883 -85.6811 172° South 454 522 31,000  Level Indianapolis Center
Fri 06:55:25 PM 38.6619 -85.6592 172° South 455 524 31,000  Level Indianapolis Center
Fri 06:56:27 PM 38.5189 -85.6342 172° South 457 526 31,000  Level Indianapolis Center
Fri 06:57:29 PM 38.3900 -85.6117 172° South 458 527 31,000  Level Indianapolis Center
Fri 06:58:31 PM 38.2617 -85.5900 172° South 459 528 31,000  Level Indianapolis Center
Fri 06:59:32 PM 38.1342 -85.5667 172° South 459 528 31,000  Level Indianapolis Center
Fri 07:00:34 PM 38.0044 -85.5453 173° South 461 531 31,000  Level Indianapolis Center
Fri 07:01:36 PM 37.8769 -85.5222 172° South 461 531 31,000 339 Level Indianapolis Center
Fri 07:02:38 PM 37.7364 -85.4989 173° South 461 531 31,700 677 Climbing Indianapolis Center
Fri 07:03:40 PM 37.6061 -85.4775 173° South 463 533 32,400 634 Climbing Indianapolis Center
Fri 07:04:41 PM 37.4797 -85.4564 172° South 464 534 33,000 293 Climbing Indianapolis Center
Fri 07:05:43 PM 37.3319 -85.4289 172° South 462 532 33,000  Level Indianapolis Center
Fri 07:06:45 PM 37.2019 -85.4072 172° South 464 534 33,000  Level Indianapolis Center
Fri 07:07:47 PM 37.0714 -85.3856 172° South 468 539 33,000  Level Indianapolis Center
Fri 07:08:48 PM 36.9481 -85.3669 173° South 471 542 33,000  Level Indianapolis Center
Fri 07:09:50 PM 36.8183 -85.3439 172° South 472 543 33,000  Level Indianapolis Center
Fri 07:10:52 PM 36.6628 -85.3169 172° South 472 543 33,000  Level Indianapolis Center
Fri 07:11:54 PM 36.5328 -85.2953 172° South 472 543 33,000  Level Indianapolis Center
Fri 07:12:56 PM 36.4033 -85.2736 172° South 472 543 33,000  Level Indianapolis Center
Fri 07:13:57 PM 36.2725 -85.2519 172° South 472 543 33,000  Level Indianapolis Center
Fri 07:14:59 PM 36.1403 -85.2300 172° South 475 547 33,000  Level Indianapolis Center
Fri 07:15:34 PM 36.0611 -85.2203 174° South 480 552 33,000  Level Atlanta Center
Fri 07:16:34 PM 35.9278 -85.1978 172° South 480 552 33,000  Level Atlanta Center
Fri 07:17:34 PM 35.7944 -85.1781 173° South 480 552 33,000  Level Atlanta Center
Fri 07:18:34 PM 35.6653 -85.1558 172° South 480 552 33,000  Level Atlanta Center
Fri 07:19:34 PM 35.5339 -85.1336 172° South 480 552 33,000  Level Atlanta Center
Fri 07:20:34 PM 35.4006 -85.1114 172° South 480 552 33,000  Level Atlanta Center
Fri 07:21:34 PM 35.2694 -85.0919 173° South 480 552 33,000  Level Atlanta Center
Fri 07:22:34 PM 35.1403 -85.0700 172° South 480 552 33,000  Level Atlanta Center
Fri 07:23:34 PM 35.0047 -85.0506 173° South 480 552 33,000  Level Atlanta Center
Fri 07:24:34 PM 34.8756 -85.0286 172° South 480 552 33,000  Level Atlanta Center
Fri 07:25:34 PM 34.7442 -85.0069 172° South 480 552 33,000  Level Atlanta Center
Fri 07:26:34 PM 34.6006 -84.9850 173° South 473 544 33,000  Level Atlanta Center
Fri 07:27:34 PM 34.4669 -84.9608 172° South 480 552 33,000  Level Atlanta Center
Fri 07:28:34 PM 34.3358 -84.9419 173° South 485 558 33,000  Level Atlanta Center
Fri 07:29:34 PM 34.2044 -84.9203 172° South 480 552 33,000  Level Atlanta Center
Fri 07:30:34 PM 34.0708 -84.8989 172° South 480 552 33,000  Level Atlanta Center
Fri 07:31:34 PM 33.9375 -84.8675 169° South 480 552 33,000  Level Atlanta Center
Fri 07:32:34 PM 33.8189 -84.8364 168° South 485 558 33,000  Level Atlanta Center
Fri 07:33:34 PM 33.6875 -84.8053 169° South 485 558 33,000  Level Atlanta Center
Fri 07:34:34 PM 33.5394 -84.7717 169° South 490 564 33,000  Level Atlanta Center
Fri 07:35:34 PM 33.4061 -84.7381 168° South 496 571 33,000  Level Atlanta Center
Fri 07:36:34 PM 33.2872 -84.7122 170° South 485 558 33,000  Level Atlanta Center
Fri 07:37:34 PM 33.1539 -84.6789 168° South 490 564 33,000  Level Atlanta Center
Fri 07:38:34 PM 33.0225 -84.6483 169° South 484 557 33,000  Level Atlanta Center
Fri 07:39:34 PM 32.8892 -84.6153 168° South 484 557 33,000  Level Atlanta Center
Fri 07:40:34 PM 32.7431 -84.5772 168° South 484 557 33,000  Level Atlanta Center
Fri 07:41:34 PM 32.6097 -84.5469 169° South 484 557 33,000  Level Atlanta Center
Fri 07:43:43 PM 32.3383 -84.4786 168° South 500 575 33,000  Level Jacksonville Center
Fri 07:44:43 PM 32.2072 -84.4467 168° South 500 575 33,000  Level Jacksonville Center
Fri 07:45:43 PM 32.0739 -84.4150 169° South 493 567 33,000  Level Jacksonville Center
Fri 07:46:42 PM 31.9428 -84.3836 169° South 488 562 33,000  Level Jacksonville Center
Fri 07:47:43 PM 31.8094 -84.3544 169° South 488 562 33,000  Level Jacksonville Center
Fri 07:48:42 PM 31.6761 -84.3231 169° South 488 562 33,000  Level Jacksonville Center
Fri 07:49:42 PM 31.5450 -84.2919 169° South 488 562 33,000  Level Jacksonville Center
Fri 07:50:42 PM 31.3992 -84.2556 168° South 488 562 33,000 -595 Level Jacksonville Center
Fri 07:51:43 PM 31.2658 -84.2269 170° South 488 562 31,800 -992 Descending Jacksonville Center
Fri 07:52:43 PM 31.1347 -84.1983 169° South 483 556 31,000 -400 Descending Jacksonville Center
Fri 07:53:43 PM 31.0033 -84.1700 170° South 483 556 31,000  Level Jacksonville Center
Fri 07:54:43 PM 30.8681 -84.1367 168° South 483 556 31,000  Level Jacksonville Center
Fri 07:55:43 PM 30.7367 -84.1058 169° South 483 556 31,000  Level Jacksonville Center
Fri 07:56:43 PM 30.6033 -84.0728 168° South 483 556 31,000 -50 Level Jacksonville Center
Fri 07:57:43 PM 30.4764 -84.0447 169° South 483 556 30,900 -50 Descending Jacksonville Center
Fri 07:58:42 PM 30.3450 -84.0142 169° South 483 556 30,900 50 Level Jacksonville Center
Fri 07:59:43 PM 30.2117 -83.9839 169° South 483 556 31,000  Climbing Jacksonville Center
Fri 08:00:43 PM 30.0806 -83.9417 164° South 488 562 30,900  Descending Jacksonville Center
Fri 08:01:43 PM 29.9558 -83.8778 156° South 488 562 31,000  Climbing Jacksonville Center
Fri 08:02:43 PM 29.8311 -83.8119 155° Southeast 488 562 30,900  Descending Jacksonville Center
Fri 08:03:42 PM 29.7019 -83.7486 157° South 494 568 31,000 50 Climbing Jacksonville Center
Fri 08:04:43 PM 29.5772 -83.6878 157° South 499 574 31,000 -100 Level Jacksonville Center
Fri 08:05:42 PM 29.4522 -83.6247 156° South 493 567 30,800 -1,050 Descending Jacksonville Center
Fri 08:06:43 PM 29.3419 -83.5692 156° South 498 573 28,900 -1,950 Descending Jacksonville Center
Fri 08:07:42 PM 29.2211 -83.5089 156° South 486 559 26,900 -1,950 Descending Jacksonville Center
Fri 08:08:43 PM 29.1089 -83.4369 151° Southeast 470 541 25,000 -1,884 Descending Jacksonville Center
Fri 08:09:43 PM 29.0006 -83.3697 152° Southeast 458 527 23,100 -1,850 Descending Jacksonville Center
Fri 08:10:43 PM 28.8964 -83.3028 151° Southeast 445 512 21,300 -1,866 Descending Jacksonville Center
Fri 08:11:42 PM 28.7944 -83.2386 151° Southeast 432 497 19,400 -1,778 Descending Jacksonville Center
Fri 08:13:25 PM 28.6167 -83.1333 153° Southeast 392 451 16,500 -1,669 Descending Tampa TRACON
Fri 08:14:31 PM 28.5167 -83.0667 150° Southeast 377 434 14,700 -1,571 Descending Tampa TRACON
Fri 08:15:31 PM 28.4333 -83.0167 152° Southeast 366 421 13,200 -1,600 Descending Tampa TRACON
Fri 08:16:31 PM 28.3333 -82.9500 150° Southeast 364 419 11,500 -1,400 Descending Tampa TRACON
Fri 08:17:31 PM 28.2500 -82.9000 152° Southeast 335 386 10,400 -1,238 Descending Tampa TRACON
Fri 08:18:37 PM 28.1500 -82.8833 172° South 310 357 8,900 -1,350 Descending Tampa TRACON
Fri 08:19:31 PM 28.0833 -82.8500 156° South 308 354 7,700 -1,211 Descending Tampa TRACON
Fri 08:20:31 PM 28.0000 -82.8333 170° South 288 331 6,600 -1,100 Descending Tampa TRACON
Fri 08:21:31 PM 27.9333 -82.8167 168° South 255 293 5,500 -1,048 Descending Tampa TRACON
Fri 08:22:37 PM 27.8500 -82.7833 161° South 234 269 4,400 -1,150 Descending Tampa TRACON
Fri 08:23:31 PM 27.8000 -82.7833 180° South 219 252 3,200 -1,263 Descending Tampa TRACON
Fri 08:24:31 PM 27.7500 -82.7667 164° South 221 254 2,000 -600 Descending Tampa TRACON
Fri 08:25:31 PM 27.7167 -82.7167 127° Southeast 199 229 2,000  Level Tampa TRACON
Fri 08:26:37 PM 27.7333 -82.6667 69° East 167 192 2,000  Level Tampa TRACON
Fri 08:27:37 PM 27.7667 -82.6667 360° North 145 167 2,000 -157 Level Tampa TRACON
Fri 08:28:32 PM 27.8167 -82.6667 360° North 145 167 1,700 -496 Descending Tampa TRACON
Fri 08:29:38 PM 27.8500 -82.6833 336° Northwest 124 143 1,000 -619 Descending Tampa TRACON
Fri 08:30:38 PM 27.8833 -82.6833 360° North 124 143 400 -600 Descending Tampa TRACON

Login

Don't have an account? Register now (free) for customized features, flight alerts, and more!